createdAt,value
2018-01-03T00:00:02.451Z,995.43
2018-01-03T00:01:02.424Z,995.41
2018-01-03T00:02:02.389Z,995.53
2018-01-03T00:03:02.354Z,995.49
2018-01-03T00:04:02.330Z,995.42
2018-01-03T00:05:02.298Z,995.26
2018-01-03T00:06:02.271Z,995.38
2018-01-03T00:07:02.234Z,995.22
2018-01-03T00:08:02.213Z,995.33
2018-01-03T00:09:02.177Z,995.26
2018-01-03T00:10:02.191Z,995.10
2018-01-03T00:11:02.117Z,995.19
2018-01-03T00:12:02.091Z,995.09
2018-01-03T00:13:02.359Z,994.95
2018-01-03T00:14:02.020Z,994.99
2018-01-03T00:15:02.005Z,994.96
2018-01-03T00:16:01.969Z,994.69
2018-01-03T00:17:01.936Z,994.74
2018-01-03T00:18:01.904Z,994.86
2018-01-03T00:19:01.880Z,994.88
2018-01-03T00:20:01.848Z,994.72
2018-01-03T00:21:01.810Z,994.73
2018-01-03T00:22:01.794Z,994.61
2018-01-03T00:23:01.762Z,994.45
2018-01-03T00:24:01.726Z,994.59
2018-01-03T00:25:01.689Z,994.55
2018-01-03T00:26:01.661Z,994.46
2018-01-03T00:27:01.641Z,994.44
2018-01-03T00:28:01.608Z,994.41
2018-01-03T00:29:01.570Z,994.35
2018-01-03T00:30:01.547Z,994.30
2018-01-03T00:31:01.815Z,994.26
2018-01-03T00:32:01.488Z,994.08
2018-01-03T00:33:01.449Z,993.81
2018-01-03T00:34:01.425Z,994.02
2018-01-03T00:35:01.395Z,994.00
2018-01-03T00:36:01.581Z,994.10
2018-01-03T00:37:01.325Z,993.83
2018-01-03T00:38:01.302Z,993.92
2018-01-03T00:39:01.271Z,993.96
2018-01-03T00:40:01.236Z,993.96
2018-01-03T00:41:01.208Z,993.87
2018-01-03T00:42:01.175Z,993.69
2018-01-03T00:43:01.446Z,993.80
2018-01-03T00:44:01.121Z,993.87
2018-01-03T00:45:01.088Z,993.69
2018-01-03T00:46:01.055Z,993.60
2018-01-03T00:47:01.017Z,993.57
2018-01-03T00:48:00.999Z,993.47
2018-01-03T00:49:00.963Z,992.85
2018-01-03T00:50:00.931Z,993.48
2018-01-03T00:51:00.908Z,993.45
2018-01-03T00:52:00.872Z,993.42
2018-01-03T00:53:00.840Z,993.27
2018-01-03T00:54:00.812Z,993.23
2018-01-03T00:55:00.787Z,993.12
2018-01-03T00:56:00.751Z,993.09
2018-01-03T00:57:00.728Z,993.10
2018-01-03T00:58:00.681Z,992.89
2018-01-03T00:59:00.663Z,992.88
2018-01-03T01:00:00.629Z,992.80
2018-01-03T01:01:00.594Z,992.94
2018-01-03T01:02:00.566Z,992.88
2018-01-03T01:03:00.543Z,992.99
2018-01-03T01:04:00.514Z,992.88
2018-01-03T01:05:00.477Z,992.92
2018-01-03T01:06:00.451Z,993.04
2018-01-03T01:07:00.712Z,993.04
2018-01-03T01:08:00.376Z,992.79
2018-01-03T01:09:00.345Z,992.82
2018-01-03T01:10:00.326Z,992.74
2018-01-03T01:11:00.298Z,992.77
2018-01-03T01:12:00.259Z,992.66
2018-01-03T01:13:00.225Z,992.62
2018-01-03T01:14:00.192Z,992.62
2018-01-03T01:15:00.171Z,992.73
2018-01-03T01:16:00.138Z,992.57
2018-01-03T01:17:00.119Z,992.33
2018-01-03T01:18:00.072Z,992.27
2018-01-03T01:19:00.345Z,992.28
2018-01-03T01:20:00.026Z,992.39
2018-01-03T01:20:59.989Z,992.21
2018-01-03T01:21:59.955Z,992.13
2018-01-03T01:22:59.922Z,992.10
2018-01-03T01:23:59.901Z,992.01
2018-01-03T01:24:59.859Z,992.05
2018-01-03T01:25:59.836Z,992.10
2018-01-03T01:26:59.802Z,992.04
2018-01-03T01:27:59.765Z,991.98
2018-01-03T01:28:59.733Z,991.83
2018-01-03T01:29:59.715Z,991.74
2018-01-03T01:30:59.676Z,991.89
2018-01-03T01:31:59.653Z,991.78
2018-01-03T01:32:59.620Z,991.75
2018-01-03T01:33:59.581Z,991.55
2018-01-03T01:34:59.554Z,991.63
2018-01-03T01:35:59.525Z,991.65
2018-01-03T01:36:59.501Z,991.38
2018-01-03T01:37:59.465Z,991.53
2018-01-03T01:38:59.447Z,991.41
2018-01-03T01:39:59.398Z,991.51
2018-01-03T01:40:59.366Z,991.45
2018-01-03T01:41:59.339Z,991.45
2018-01-03T01:42:59.325Z,991.43
2018-01-03T01:43:59.284Z,991.09
2018-01-03T01:44:59.245Z,991.22
2018-01-03T01:45:59.225Z,990.63
2018-01-03T01:46:59.186Z,991.21
2018-01-03T01:47:59.157Z,991.15
2018-01-03T01:48:59.141Z,990.89
2018-01-03T01:49:59.091Z,991.06
2018-01-03T01:50:59.060Z,991.05
2018-01-03T01:51:59.047Z,990.91
2018-01-03T01:52:59.011Z,991.03
2018-01-03T01:53:58.977Z,990.98
2018-01-03T01:54:58.948Z,990.86
2018-01-03T01:55:58.911Z,990.80
2018-01-03T01:56:58.882Z,990.88
2018-01-03T01:57:58.856Z,990.71
2018-01-03T01:58:58.827Z,990.79
2018-01-03T01:59:58.795Z,990.78
2018-01-03T02:00:59.010Z,990.37
2018-01-03T02:01:58.730Z,990.65
2018-01-03T02:02:58.702Z,990.50
2018-01-03T02:03:58.670Z,990.40
2018-01-03T02:04:58.652Z,990.50
2018-01-03T02:05:58.601Z,990.43
2018-01-03T02:06:58.871Z,990.32
2018-01-03T02:07:58.545Z,990.26
2018-01-03T02:08:58.518Z,990.25
2018-01-03T02:09:58.491Z,990.03
2018-01-03T02:10:58.460Z,990.11
2018-01-03T02:11:58.418Z,990.23
2018-01-03T02:12:58.386Z,990.13
2018-01-03T02:13:58.362Z,990.16
2018-01-03T02:14:58.330Z,990.04
2018-01-03T02:15:58.305Z,989.96
2018-01-03T02:16:58.271Z,990.08
2018-01-03T02:17:58.245Z,989.42
2018-01-03T02:18:58.202Z,989.61
2018-01-03T02:19:58.185Z,989.64
2018-01-03T02:20:58.151Z,989.72
2018-01-03T02:21:58.122Z,989.72
2018-01-03T02:22:58.087Z,989.55
2018-01-03T02:23:58.060Z,989.67
2018-01-03T02:24:58.020Z,989.65
2018-01-03T02:25:58.000Z,989.59
2018-01-03T02:26:57.966Z,989.49
2018-01-03T02:27:57.932Z,989.55
2018-01-03T02:28:57.908Z,989.54
2018-01-03T02:29:57.867Z,989.46
2018-01-03T02:30:58.188Z,989.41
2018-01-03T02:31:57.820Z,989.30
2018-01-03T02:32:57.781Z,989.20
2018-01-03T02:33:57.761Z,989.29
2018-01-03T02:34:57.726Z,989.23
2018-01-03T02:35:57.693Z,989.19
2018-01-03T02:36:57.659Z,989.19
2018-01-03T02:37:57.633Z,989.04
2018-01-03T02:38:57.605Z,988.94
2018-01-03T02:39:57.568Z,988.90
2018-01-03T02:40:57.529Z,988.85
2018-01-03T02:41:57.502Z,988.75
2018-01-03T02:42:57.477Z,988.71
2018-01-03T02:43:57.457Z,988.40
2018-01-03T02:44:57.416Z,988.58
2018-01-03T02:45:57.387Z,988.50
2018-01-03T02:46:57.606Z,988.18
2018-01-03T02:47:57.329Z,988.28
2018-01-03T02:48:57.290Z,988.28
2018-01-03T02:49:57.273Z,988.09
2018-01-03T02:50:57.237Z,987.86
2018-01-03T02:51:57.195Z,988.10
2018-01-03T02:52:57.164Z,987.89
2018-01-03T02:53:57.144Z,987.92
2018-01-03T02:54:57.108Z,987.83
2018-01-03T02:55:57.080Z,987.79
2018-01-03T02:56:57.056Z,987.79
2018-01-03T02:57:57.021Z,987.63
2018-01-03T02:58:57.532Z,987.57
2018-01-03T02:59:56.955Z,987.60
2018-01-03T03:00:56.922Z,987.32
2018-01-03T03:01:56.890Z,987.46
2018-01-03T03:02:56.858Z,987.26
2018-01-03T03:03:56.839Z,987.21
2018-01-03T03:04:56.814Z,987.31
2018-01-03T03:05:56.781Z,987.23
2018-01-03T03:06:56.747Z,986.97
2018-01-03T03:07:56.707Z,986.85
2018-01-03T03:08:56.678Z,987.09
2018-01-03T03:09:56.655Z,986.71
2018-01-03T03:10:56.928Z,986.91
2018-01-03T03:11:56.584Z,986.76
2018-01-03T03:12:56.560Z,986.84
2018-01-03T03:13:56.533Z,986.59
2018-01-03T03:14:56.498Z,986.88
2018-01-03T03:15:56.465Z,986.58
2018-01-03T03:16:56.442Z,986.48
2018-01-03T03:17:56.403Z,986.50
2018-01-03T03:18:56.373Z,986.37
2018-01-03T03:19:56.345Z,986.03
2018-01-03T03:20:56.312Z,986.30
2018-01-03T03:21:56.283Z,986.16
2018-01-03T03:22:56.257Z,986.06
2018-01-03T03:23:56.229Z,986.09
2018-01-03T03:24:56.197Z,986.18
2018-01-03T03:25:56.164Z,986.11
2018-01-03T03:26:56.138Z,986.03
2018-01-03T03:27:56.112Z,986.12
2018-01-03T03:28:56.371Z,985.83
2018-01-03T03:29:56.040Z,985.94
2018-01-03T03:30:56.008Z,985.99
2018-01-03T03:31:56.004Z,985.93
2018-01-03T03:32:55.950Z,985.70
2018-01-03T03:33:55.923Z,985.75
2018-01-03T03:34:56.134Z,985.58
2018-01-03T03:35:55.869Z,985.38
2018-01-03T03:36:55.836Z,985.42
2018-01-03T03:37:55.827Z,985.34
2018-01-03T03:38:55.773Z,985.32
2018-01-03T03:39:55.732Z,985.25
2018-01-03T03:40:55.699Z,985.17
2018-01-03T03:41:55.673Z,985.13
2018-01-03T03:42:55.653Z,984.99
2018-01-03T03:43:55.609Z,985.07
2018-01-03T03:44:55.580Z,984.95
2018-01-03T03:45:55.591Z,984.77
2018-01-03T03:46:55.520Z,984.69
2018-01-03T03:47:55.503Z,984.81
2018-01-03T03:48:55.464Z,984.73
2018-01-03T03:49:55.424Z,984.56
2018-01-03T03:50:55.399Z,984.66
2018-01-03T03:51:55.368Z,984.51
2018-01-03T03:52:55.638Z,984.51
2018-01-03T03:53:55.311Z,984.44
2018-01-03T03:54:55.288Z,984.05
2018-01-03T03:55:55.252Z,984.06
2018-01-03T03:56:55.222Z,984.17
2018-01-03T03:57:55.200Z,984.19
2018-01-03T03:58:55.159Z,983.91
2018-01-03T03:59:55.125Z,983.77
2018-01-03T04:00:55.093Z,983.96
2018-01-03T04:01:55.071Z,983.92
2018-01-03T04:02:55.032Z,983.77
2018-01-03T04:03:55.016Z,983.69
2018-01-03T04:04:54.975Z,983.60
2018-01-03T04:05:54.943Z,983.44
2018-01-03T04:06:54.920Z,983.48
2018-01-03T04:07:54.885Z,983.34
2018-01-03T04:08:54.851Z,983.39
2018-01-03T04:09:54.827Z,983.39
2018-01-03T04:10:54.795Z,983.31
2018-01-03T04:11:54.757Z,983.25
2018-01-03T04:12:54.735Z,983.30
2018-01-03T04:13:54.704Z,983.25
2018-01-03T04:14:54.679Z,983.11
2018-01-03T04:15:54.646Z,982.97
2018-01-03T04:16:54.614Z,982.86
2018-01-03T04:17:54.579Z,982.86
2018-01-03T04:18:54.549Z,982.64
2018-01-03T04:19:54.520Z,982.58
2018-01-03T04:20:54.487Z,982.47
2018-01-03T04:21:54.460Z,982.19
2018-01-03T04:22:54.436Z,982.33
2018-01-03T04:23:54.400Z,982.36
2018-01-03T04:24:54.368Z,982.20
2018-01-03T04:25:54.341Z,982.08
2018-01-03T04:26:54.312Z,982.07
2018-01-03T04:27:54.574Z,981.90
2018-01-03T04:28:54.245Z,981.88
2018-01-03T04:29:54.213Z,981.81
2018-01-03T04:30:54.183Z,981.64
2018-01-03T04:31:54.149Z,981.68
2018-01-03T04:32:54.126Z,981.62
2018-01-03T04:33:54.088Z,981.35
2018-01-03T04:34:54.068Z,981.47
2018-01-03T04:35:54.032Z,981.49
2018-01-03T04:36:54.013Z,981.43
2018-01-03T04:37:53.979Z,981.14
2018-01-03T04:38:53.953Z,981.26
2018-01-03T04:39:53.915Z,980.80
2018-01-03T04:40:53.895Z,980.73
2018-01-03T04:41:53.859Z,980.89
2018-01-03T04:42:53.827Z,980.81
2018-01-03T04:43:53.801Z,980.73
2018-01-03T04:44:53.762Z,980.65
2018-01-03T04:45:54.088Z,980.37
2018-01-03T04:46:53.707Z,980.57
2018-01-03T04:47:53.672Z,980.50
2018-01-03T04:48:53.647Z,980.15
2018-01-03T04:49:53.612Z,980.15
2018-01-03T04:50:53.574Z,980.25
2018-01-03T04:51:53.548Z,980.20
2018-01-03T04:52:53.528Z,980.21
2018-01-03T04:53:53.489Z,980.07
2018-01-03T04:54:53.454Z,980.15
2018-01-03T04:55:53.430Z,979.96
2018-01-03T04:56:53.404Z,979.88
2018-01-03T04:57:53.367Z,979.81
2018-01-03T04:58:53.339Z,979.84
2018-01-03T04:59:53.310Z,979.65
2018-01-03T05:00:53.272Z,979.85
2018-01-03T05:01:53.252Z,979.81
2018-01-03T05:02:53.218Z,979.70
2018-01-03T05:03:53.483Z,979.76
2018-01-03T05:04:53.161Z,979.69
2018-01-03T05:05:53.133Z,979.51
2018-01-03T05:06:53.097Z,979.50
2018-01-03T05:07:53.072Z,979.57
2018-01-03T05:08:53.043Z,979.45
2018-01-03T05:09:53.306Z,979.43
2018-01-03T05:10:52.982Z,979.25
2018-01-03T05:11:52.951Z,979.09
2018-01-03T05:12:52.923Z,979.30
2018-01-03T05:13:52.888Z,979.21
2018-01-03T05:14:52.870Z,979.01
2018-01-03T05:15:52.877Z,979.20
2018-01-03T05:16:52.790Z,978.62
2018-01-03T05:17:52.762Z,979.08
2018-01-03T05:18:52.738Z,979.14
2018-01-03T05:19:52.708Z,979.18
2018-01-03T05:20:52.671Z,978.88
2018-01-03T05:21:52.642Z,978.55
2018-01-03T05:22:52.619Z,978.90
2018-01-03T05:23:52.586Z,978.75
2018-01-03T05:24:52.549Z,978.95
2018-01-03T05:25:52.523Z,978.96
2018-01-03T05:26:52.484Z,978.78
2018-01-03T05:27:52.474Z,978.87
2018-01-03T05:28:52.427Z,978.86
2018-01-03T05:29:52.398Z,978.72
2018-01-03T05:30:52.373Z,978.25
2018-01-03T05:31:52.344Z,978.39
2018-01-03T05:32:52.313Z,978.13
2018-01-03T05:33:52.284Z,978.57
2018-01-03T05:34:52.245Z,978.62
2018-01-03T05:35:52.211Z,978.30
2018-01-03T05:36:52.188Z,978.37
2018-01-03T05:37:52.151Z,977.87
2018-01-03T05:38:52.122Z,978.56
2018-01-03T05:39:52.396Z,978.42
2018-01-03T05:40:52.064Z,978.23
2018-01-03T05:41:52.033Z,978.00
2018-01-03T05:42:52.007Z,978.33
2018-01-03T05:43:51.984Z,978.31
2018-01-03T05:44:51.944Z,978.41
2018-01-03T05:45:51.911Z,978.25
2018-01-03T05:46:51.881Z,978.24
2018-01-03T05:47:51.859Z,978.21
2018-01-03T05:48:51.817Z,978.04
2018-01-03T05:49:51.792Z,978.01
2018-01-03T05:50:51.761Z,978.10
2018-01-03T05:51:51.737Z,977.85
2018-01-03T05:52:51.705Z,977.90
2018-01-03T05:53:51.668Z,977.87
2018-01-03T05:54:51.635Z,977.58
2018-01-03T05:55:51.620Z,977.90
2018-01-03T05:56:51.584Z,977.84
2018-01-03T05:57:51.544Z,977.71
2018-01-03T05:58:51.542Z,977.55
2018-01-03T05:59:51.501Z,977.73
2018-01-03T06:00:51.460Z,977.43
2018-01-03T06:01:51.440Z,977.64
2018-01-03T06:02:51.405Z,977.49
2018-01-03T06:03:51.665Z,977.42
2018-01-03T06:04:51.333Z,977.52
2018-01-03T06:05:51.309Z,977.52
2018-01-03T06:06:51.277Z,977.26
2018-01-03T06:07:51.249Z,977.25
2018-01-03T06:08:51.212Z,977.50
2018-01-03T06:09:51.183Z,977.53
2018-01-03T06:10:51.152Z,977.43
2018-01-03T06:11:51.138Z,977.36
2018-01-03T06:12:51.106Z,977.50
2018-01-03T06:13:51.076Z,977.56
2018-01-03T06:14:51.034Z,977.43
2018-01-03T06:15:51.015Z,977.32
2018-01-03T06:16:50.984Z,977.32
2018-01-03T06:17:50.961Z,977.54
2018-01-03T06:18:50.920Z,977.38
2018-01-03T06:19:50.890Z,977.15
2018-01-03T06:20:50.853Z,977.13
2018-01-03T06:21:51.178Z,977.03
2018-01-03T06:22:50.802Z,976.59
2018-01-03T06:23:50.766Z,977.08
2018-01-03T06:24:50.746Z,977.06
2018-01-03T06:25:50.704Z,977.07
2018-01-03T06:26:50.673Z,976.96
2018-01-03T06:27:50.649Z,976.89
2018-01-03T06:28:50.618Z,977.02
2018-01-03T06:29:50.585Z,977.06
2018-01-03T06:30:50.560Z,977.12
2018-01-03T06:31:50.534Z,977.00
2018-01-03T06:32:50.502Z,976.97
2018-01-03T06:33:50.727Z,977.04
2018-01-03T06:34:50.447Z,977.05
2018-01-03T06:35:50.408Z,976.94
2018-01-03T06:36:50.374Z,976.77
2018-01-03T06:37:50.351Z,976.89
2018-01-03T06:38:50.322Z,976.83
2018-01-03T06:39:50.540Z,976.49
2018-01-03T06:40:50.266Z,976.77
2018-01-03T06:41:50.230Z,976.52
2018-01-03T06:42:50.202Z,976.76
2018-01-03T06:43:50.177Z,976.57
2018-01-03T06:44:50.136Z,976.74
2018-01-03T06:45:50.117Z,976.63
2018-01-03T06:46:50.093Z,976.64
2018-01-03T06:47:50.049Z,976.68
2018-01-03T06:48:50.029Z,976.60
2018-01-03T06:49:49.986Z,976.59
2018-01-03T06:50:49.962Z,976.65
2018-01-03T06:51:50.232Z,976.49
2018-01-03T06:52:49.905Z,976.63
2018-01-03T06:53:49.878Z,976.49
2018-01-03T06:54:49.843Z,976.49
2018-01-03T06:55:49.820Z,976.53
2018-01-03T06:56:49.789Z,976.54
2018-01-03T06:57:49.755Z,976.33
2018-01-03T06:58:49.729Z,976.45
2018-01-03T06:59:49.698Z,976.40
2018-01-03T07:00:49.661Z,976.54
2018-01-03T07:01:49.644Z,976.26
2018-01-03T07:02:49.608Z,976.67
2018-01-03T07:03:49.887Z,976.53
2018-01-03T07:04:49.546Z,976.40
2018-01-03T07:05:49.520Z,976.30
2018-01-03T07:06:49.490Z,976.28
2018-01-03T07:07:49.460Z,976.20
2018-01-03T07:08:49.429Z,976.70
2018-01-03T07:09:49.396Z,976.44
2018-01-03T07:10:49.373Z,976.29
2018-01-03T07:11:49.349Z,976.78
2018-01-03T07:12:49.322Z,976.35
2018-01-03T07:13:49.294Z,976.91
2018-01-03T07:14:49.252Z,976.62
2018-01-03T07:15:49.225Z,976.11
2018-01-03T07:16:49.189Z,976.29
2018-01-03T07:17:49.165Z,976.77
2018-01-03T07:18:49.143Z,976.66
2018-01-03T07:19:49.112Z,976.94
2018-01-03T07:20:49.077Z,976.70
2018-01-03T07:21:49.043Z,976.61
2018-01-03T07:22:49.015Z,976.46
2018-01-03T07:23:48.991Z,976.64
2018-01-03T07:24:48.957Z,976.94
2018-01-03T07:25:48.928Z,976.80
2018-01-03T07:26:48.898Z,976.59
2018-01-03T07:27:48.876Z,976.63
2018-01-03T07:28:48.848Z,976.68
2018-01-03T07:29:48.816Z,976.72
2018-01-03T07:30:48.783Z,976.72
2018-01-03T07:31:48.753Z,976.88
2018-01-03T07:32:48.722Z,976.84
2018-01-03T07:33:48.696Z,976.95
2018-01-03T07:34:48.677Z,976.98
2018-01-03T07:35:48.638Z,976.60
2018-01-03T07:36:48.616Z,976.87
2018-01-03T07:37:48.586Z,976.73
2018-01-03T07:38:48.556Z,976.52
2018-01-03T07:39:48.522Z,976.83
2018-01-03T07:40:48.497Z,976.73
2018-01-03T07:41:48.461Z,976.79
2018-01-03T07:42:48.437Z,976.48
2018-01-03T07:43:48.408Z,976.76
2018-01-03T07:44:48.378Z,976.89
2018-01-03T07:45:48.363Z,976.71
2018-01-03T07:46:48.321Z,976.83
2018-01-03T07:47:48.288Z,976.74
2018-01-03T07:48:48.257Z,976.78
2018-01-03T07:49:48.233Z,976.84
2018-01-03T07:50:48.522Z,976.82
2018-01-03T07:51:48.178Z,976.65
2018-01-03T07:52:48.145Z,976.84
2018-01-03T07:53:48.117Z,976.87
2018-01-03T07:54:48.097Z,976.76
2018-01-03T07:55:48.066Z,976.90
2018-01-03T07:56:48.032Z,976.78
2018-01-03T07:57:48.025Z,976.67
2018-01-03T07:58:48.025Z,976.68
2018-01-03T07:59:47.956Z,976.74
2018-01-03T08:00:47.925Z,976.94
2018-01-03T08:01:47.894Z,977.01
2018-01-03T08:02:47.867Z,976.76
2018-01-03T08:03:47.835Z,976.72
2018-01-03T08:04:47.801Z,976.48
2018-01-03T08:05:47.770Z,976.82
2018-01-03T08:06:47.744Z,976.48
2018-01-03T08:07:47.729Z,976.60
2018-01-03T08:08:47.692Z,976.56
2018-01-03T08:09:47.668Z,976.52
2018-01-03T08:10:47.630Z,976.46
2018-01-03T08:11:47.602Z,976.46
2018-01-03T08:12:47.569Z,976.35
2018-01-03T08:13:47.542Z,976.32
2018-01-03T08:14:47.520Z,976.58
2018-01-03T08:15:47.535Z,976.42
2018-01-03T08:16:47.465Z,976.65
2018-01-03T08:17:47.435Z,976.54
2018-01-03T08:18:47.399Z,976.46
2018-01-03T08:19:47.370Z,976.53
2018-01-03T08:20:47.349Z,976.51
2018-01-03T08:21:47.318Z,976.55
2018-01-03T08:22:47.287Z,976.51
2018-01-03T08:23:47.259Z,976.57
2018-01-03T08:24:47.236Z,976.41
2018-01-03T08:25:47.209Z,976.60
2018-01-03T08:26:47.178Z,976.68
2018-01-03T08:27:47.154Z,976.55
2018-01-03T08:28:47.120Z,976.78
2018-01-03T08:29:47.094Z,976.62
2018-01-03T08:30:47.062Z,976.62
2018-01-03T08:31:47.389Z,976.71
2018-01-03T08:32:47.004Z,976.68
2018-01-03T08:33:47.009Z,976.72
2018-01-03T08:34:46.953Z,976.87
2018-01-03T08:35:46.929Z,976.73
2018-01-03T08:36:46.902Z,976.78
2018-01-03T08:37:46.869Z,976.69
2018-01-03T08:38:46.834Z,976.77
2018-01-03T08:39:46.810Z,976.87
2018-01-03T08:40:46.776Z,976.84
2018-01-03T08:41:46.766Z,976.79
2018-01-03T08:42:46.720Z,976.65
2018-01-03T08:43:46.996Z,976.42
2018-01-03T08:44:46.673Z,976.63
2018-01-03T08:45:46.643Z,976.53
2018-01-03T08:46:46.612Z,976.46
2018-01-03T08:47:46.579Z,976.78
2018-01-03T08:48:46.562Z,976.66
2018-01-03T08:49:46.528Z,976.77
2018-01-03T08:50:46.506Z,976.82
2018-01-03T08:51:46.476Z,976.72
2018-01-03T08:52:46.439Z,976.85
2018-01-03T08:53:46.416Z,976.71
2018-01-03T08:54:46.385Z,976.93
2018-01-03T08:55:46.356Z,976.88
2018-01-03T08:56:46.333Z,976.82
2018-01-03T08:57:46.313Z,976.98
2018-01-03T08:58:46.281Z,976.80
2018-01-03T08:59:46.248Z,976.84
2018-01-03T09:00:46.218Z,976.85
2018-01-03T09:01:46.187Z,976.83
2018-01-03T09:02:46.166Z,977.03
2018-01-03T09:03:46.138Z,977.09
2018-01-03T09:04:46.106Z,977.13
2018-01-03T09:05:46.076Z,977.16
2018-01-03T09:06:46.051Z,977.04
2018-01-03T09:07:46.018Z,977.11
2018-01-03T09:08:45.992Z,977.10
2018-01-03T09:09:45.966Z,976.90
2018-01-03T09:10:45.928Z,977.12
2018-01-03T09:11:45.908Z,977.18
2018-01-03T09:12:46.180Z,977.20
2018-01-03T09:13:45.846Z,977.22
2018-01-03T09:14:45.822Z,977.17
2018-01-03T09:15:45.789Z,977.32
2018-01-03T09:16:45.784Z,977.31
2018-01-03T09:17:45.733Z,977.25
2018-01-03T09:18:45.710Z,977.31
2018-01-03T09:19:45.674Z,977.40
2018-01-03T09:20:45.653Z,977.47
2018-01-03T09:21:45.621Z,977.36
2018-01-03T09:22:45.592Z,977.25
2018-01-03T09:23:45.562Z,977.41
2018-01-03T09:24:45.534Z,977.53
2018-01-03T09:25:45.506Z,977.47
2018-01-03T09:26:45.484Z,977.40
2018-01-03T09:27:45.452Z,977.59
2018-01-03T09:28:45.422Z,977.38
2018-01-03T09:29:45.399Z,977.50
2018-01-03T09:30:45.368Z,977.51
2018-01-03T09:31:45.350Z,977.67
2018-01-03T09:32:45.311Z,977.61
2018-01-03T09:33:45.295Z,977.64
2018-01-03T09:34:45.262Z,977.57
2018-01-03T09:35:45.234Z,977.56
2018-01-03T09:36:45.203Z,977.47
2018-01-03T09:37:45.179Z,977.51
2018-01-03T09:38:45.156Z,977.58
2018-01-03T09:39:45.130Z,977.54
2018-01-03T09:40:45.102Z,977.56
2018-01-03T09:41:45.079Z,977.50
2018-01-03T09:42:45.043Z,977.57
2018-01-03T09:43:45.014Z,977.63
2018-01-03T09:44:44.996Z,977.65
2018-01-03T09:45:44.959Z,977.58
2018-01-03T09:46:44.944Z,977.76
2018-01-03T09:47:44.908Z,977.73
2018-01-03T09:48:45.190Z,977.68
2018-01-03T09:49:44.854Z,977.74
2018-01-03T09:50:44.820Z,977.61
2018-01-03T09:51:44.797Z,977.77
2018-01-03T09:52:44.778Z,977.64
2018-01-03T09:53:44.750Z,977.77
2018-01-03T09:54:44.717Z,977.63
2018-01-03T09:55:44.690Z,977.73
2018-01-03T09:56:44.655Z,977.70
2018-01-03T09:57:44.631Z,977.65
2018-01-03T09:58:44.608Z,977.64
2018-01-03T09:59:44.576Z,977.65
2018-01-03T10:00:44.544Z,977.56
2018-01-03T10:01:44.517Z,977.56
2018-01-03T10:02:44.488Z,977.52
2018-01-03T10:03:44.462Z,977.50
2018-01-03T10:04:44.432Z,977.46
2018-01-03T10:05:44.412Z,977.40
2018-01-03T10:06:44.386Z,977.56
2018-01-03T10:07:44.359Z,977.49
2018-01-03T10:08:44.323Z,977.73
2018-01-03T10:09:44.293Z,977.60
2018-01-03T10:10:44.272Z,977.63
2018-01-03T10:11:44.246Z,977.63
2018-01-03T10:12:44.217Z,977.72
2018-01-03T10:13:44.189Z,977.79
2018-01-03T10:14:44.156Z,977.59
2018-01-03T10:15:44.130Z,978.04
2018-01-03T10:16:44.108Z,977.87
2018-01-03T10:17:44.070Z,977.75
2018-01-03T10:18:44.048Z,977.82
2018-01-03T10:19:44.022Z,978.03
2018-01-03T10:20:44.004Z,977.86
2018-01-03T10:21:43.955Z,977.96
2018-01-03T10:22:43.939Z,978.16
2018-01-03T10:23:43.909Z,978.07
2018-01-03T10:24:43.869Z,978.23
2018-01-03T10:25:43.852Z,977.98
2018-01-03T10:26:43.817Z,977.98
2018-01-03T10:27:43.799Z,977.89
2018-01-03T10:28:43.767Z,978.01
2018-01-03T10:29:43.726Z,977.91
2018-01-03T10:30:43.697Z,977.94
2018-01-03T10:31:43.672Z,977.92
2018-01-03T10:32:43.639Z,978.11
2018-01-03T10:33:43.610Z,978.06
2018-01-03T10:34:43.587Z,978.10
2018-01-03T10:35:43.565Z,978.12
2018-01-03T10:36:43.530Z,978.23
2018-01-03T10:37:43.519Z,978.15
2018-01-03T10:38:43.473Z,978.23
2018-01-03T10:39:43.438Z,978.04
2018-01-03T10:40:43.411Z,977.92
2018-01-03T10:41:43.385Z,978.10
2018-01-03T10:42:43.350Z,978.12
2018-01-03T10:43:43.343Z,978.13
2018-01-03T10:44:43.300Z,977.96
2018-01-03T10:45:43.269Z,978.30
2018-01-03T10:46:43.243Z,978.04
2018-01-03T10:47:43.211Z,978.02
2018-01-03T10:48:43.486Z,978.14
2018-01-03T10:49:43.147Z,978.02
2018-01-03T10:50:43.121Z,978.18
2018-01-03T10:51:43.099Z,978.19
2018-01-03T10:52:43.062Z,978.20
2018-01-03T10:53:43.044Z,978.12
2018-01-03T10:54:43.309Z,978.45
2018-01-03T10:55:42.981Z,978.18
2018-01-03T10:56:42.946Z,978.49
2018-01-03T10:57:42.926Z,978.41
2018-01-03T10:58:42.896Z,978.48
2018-01-03T10:59:42.864Z,978.53
2018-01-03T11:00:42.832Z,978.54
2018-01-03T11:01:42.799Z,978.54
2018-01-03T11:02:42.781Z,978.52
2018-01-03T11:03:42.750Z,978.53
2018-01-03T11:04:42.721Z,978.66
2018-01-03T11:05:42.684Z,978.67
2018-01-03T11:06:42.657Z,978.16
2018-01-03T11:07:42.635Z,978.45
2018-01-03T11:08:42.603Z,978.50
2018-01-03T11:09:42.568Z,978.39
2018-01-03T11:10:42.544Z,978.49
2018-01-03T11:11:42.513Z,978.44
2018-01-03T11:12:42.483Z,977.91
2018-01-03T11:13:42.465Z,978.58
2018-01-03T11:14:42.425Z,978.67
2018-01-03T11:15:42.397Z,978.32
2018-01-03T11:16:42.376Z,978.23
2018-01-03T11:17:42.345Z,978.54
2018-01-03T11:18:42.307Z,978.11
2018-01-03T11:19:42.295Z,978.42
2018-01-03T11:20:42.250Z,978.54
2018-01-03T11:21:42.232Z,978.53
2018-01-03T11:22:42.203Z,978.36
2018-01-03T11:23:42.163Z,978.37
2018-01-03T11:24:42.135Z,977.99
2018-01-03T11:25:42.117Z,978.39
2018-01-03T11:26:42.092Z,977.85
2018-01-03T11:27:42.052Z,978.35
2018-01-03T11:28:42.025Z,978.39
2018-01-03T11:29:41.991Z,978.39
2018-01-03T11:30:41.972Z,978.20
2018-01-03T11:31:41.940Z,978.44
2018-01-03T11:32:41.902Z,977.68
2018-01-03T11:33:41.876Z,978.40
2018-01-03T11:34:41.846Z,978.26
2018-01-03T11:35:41.823Z,978.44
2018-01-03T11:36:41.797Z,978.34
2018-01-03T11:37:41.765Z,978.32
2018-01-03T11:38:41.739Z,978.18
2018-01-03T11:39:41.712Z,978.22
2018-01-03T11:40:41.675Z,978.21
2018-01-03T11:41:41.655Z,977.63
2018-01-03T11:42:41.617Z,978.25
2018-01-03T11:43:41.591Z,978.16
2018-01-03T11:44:41.562Z,978.12
2018-01-03T11:45:41.561Z,977.93
2018-01-03T11:46:41.506Z,978.07
2018-01-03T11:47:41.486Z,977.85
2018-01-03T11:48:41.454Z,977.86
2018-01-03T11:49:41.435Z,977.86
2018-01-03T11:50:41.391Z,977.97
2018-01-03T11:51:41.359Z,977.73
2018-01-03T11:52:41.344Z,977.94
2018-01-03T11:53:41.657Z,977.87
2018-01-03T11:54:41.275Z,977.99
2018-01-03T11:55:41.245Z,977.96
2018-01-03T11:56:41.223Z,977.66
2018-01-03T11:57:41.194Z,977.74
2018-01-03T11:58:41.163Z,977.68
2018-01-03T11:59:41.141Z,977.56
2018-01-03T12:00:41.101Z,977.72
2018-01-03T12:01:41.089Z,977.78
2018-01-03T12:02:41.042Z,977.51
2018-01-03T12:03:41.017Z,977.83
2018-01-03T12:04:40.989Z,977.63
2018-01-03T12:05:40.959Z,977.79
2018-01-03T12:06:40.928Z,977.66
2018-01-03T12:07:40.899Z,977.52
2018-01-03T12:08:40.870Z,977.44
2018-01-03T12:09:40.855Z,977.42
2018-01-03T12:10:40.820Z,977.27
2018-01-03T12:11:40.784Z,977.40
2018-01-03T12:12:40.753Z,977.79
2018-01-03T12:13:40.737Z,977.70
2018-01-03T12:14:40.705Z,976.85
2018-01-03T12:15:40.666Z,977.35
2018-01-03T12:16:40.638Z,977.53
2018-01-03T12:17:40.615Z,977.35
2018-01-03T12:18:40.587Z,977.05
2018-01-03T12:19:40.560Z,977.34
2018-01-03T12:20:40.526Z,977.45
2018-01-03T12:21:40.499Z,976.83
2018-01-03T12:22:40.471Z,977.01
2018-01-03T12:23:40.442Z,977.40
2018-01-03T12:24:40.411Z,977.27
2018-01-03T12:25:40.386Z,976.96
2018-01-03T12:26:40.360Z,977.16
2018-01-03T12:27:40.322Z,977.23